Time;durP1;ratioP1;P1;durP2;ratioP2;P2;SDS_P1;SDS_P2;PMS_P1;PMS_P2;Temp;Humidity;BMP_temperature;BMP_pressure;BME280_temperature;BME280_humidity;BME280_pressure;Samples;Min_cycle;Max_cycle;Signal;HPM_P1;HPM_P2
2023/03/20 00:01:38;;;;;;;2.70;2.25;;;;;;;;;;5076247;28;20344;-60
2023/03/20 00:04:04;;;;;;;3.80;2.53;;;;;;;;;;5076203;28;20028;-60
2023/03/20 00:06:31;;;;;;;4.00;2.50;;;;;;;;;;5076499;28;20029;-60
2023/03/20 00:08:57;;;;;;;4.65;3.13;;;;;;;;;;5076628;28;20037;-60
2023/03/20 00:11:23;;;;;;;3.65;2.45;;;;;;;;;;5076032;28;20178;-60
2023/03/20 00:13:49;;;;;;;3.72;2.33;;;;;;;;;;5076035;28;20028;-60
2023/03/20 00:16:15;;;;;;;5.68;3.83;;;;;;;;;;5077101;28;20052;-60
2023/03/20 00:18:41;;;;;;;6.00;3.00;;;;;;;;;;5076463;28;20445;-60
2023/03/20 00:21:10;;;;;;;4.63;2.95;;;;;;;;;;5075898;28;20031;-60
2023/03/20 00:23:36;;;;;;;3.10;2.35;;;;;;;;;;5075780;28;20024;-60
2023/03/20 00:26:02;;;;;;;3.55;2.60;;;;;;;;;;5075778;28;20028;-60
2023/03/20 00:28:31;;;;;;;5.57;3.05;;;;;;;;;;5075666;28;20020;-60
2023/03/20 00:30:57;;;;;;;3.20;2.63;;;;;;;;;;5076056;28;20086;-60
2023/03/20 00:33:23;;;;;;;3.72;2.33;;;;;;;;;;5075555;28;20025;-60
2023/03/20 00:35:49;;;;;;;3.25;2.25;;;;;;;;;;5075293;28;20036;-60
2023/03/20 00:38:15;;;;;;;4.55;2.42;;;;;;;;;;5076230;28;20343;-60
2023/03/20 00:40:41;;;;;;;3.47;2.40;;;;;;;;;;5075180;28;20103;-60
2023/03/20 00:43:10;;;;;;;3.78;3.17;;;;;;;;;;5075711;28;20036;-60
2023/03/20 00:45:36;;;;;;;3.90;2.85;;;;;;;;;;5075749;28;20107;-60
2023/03/20 00:48:02;;;;;;;4.38;3.33;;;;;;;;;;5076128;28;20108;-60
2023/03/20 00:50:29;;;;;;;4.55;3.63;;;;;;;;;;5075878;28;20025;-60
2023/03/20 00:52:56;;;;;;;3.15;2.20;;;;;;;;;;5075217;28;20032;-60
2023/03/20 00:55:23;;;;;;;4.28;3.03;;;;;;;;;;5075678;28;20481;-60
2023/03/20 00:57:57;;;;;;;3.90;2.58;;;;;;;;;;5075109;28;20111;-60
2023/03/20 01:00:29;;;;;;;6.43;3.40;;;;;;;;;;5075318;28;20024;-59
2023/03/20 01:02:56;;;;;;;5.15;1.77;;;;;;;;;;5074990;28;20031;-60
2023/03/20 01:05:23;;;;;;;3.60;2.33;;;;;;;;;;5075012;28;20039;-60
2023/03/20 01:07:49;;;;;;;3.47;2.17;;;;;;;;;;5075357;28;20043;-60
2023/03/20 01:10:16;;;;;;;2.97;2.50;;;;;;;;;;5075345;28;20035;-60
2023/03/20 01:12:43;;;;;;;2.85;2.33;;;;;;;;;;5073144;28;20024;-60
2023/03/20 01:15:30;;;;;;;3.50;2.50;;;;;;;;;;5075072;28;20135;-59
2023/03/20 01:17:56;;;;;;;4.45;2.90;;;;;;;;;;5074699;28;20089;-60
2023/03/20 01:20:27;;;;;;;3.90;2.50;;;;;;;;;;5074944;28;20032;-59
2023/03/20 01:22:53;;;;;;;3.35;2.50;;;;;;;;;;5073309;28;20074;-59
2023/03/20 01:25:19;;;;;;;5.47;2.42;;;;;;;;;;5074594;28;20455;-59
2023/03/20 01:27:48;;;;;;;2.65;1.85;;;;;;;;;;5073145;28;20115;-59
2023/03/20 01:30:33;;;;;;;3.65;2.33;;;;;;;;;;5074523;28;20355;-59
2023/03/20 01:32:59;;;;;;;3.47;1.98;;;;;;;;;;5074692;28;20115;-60
2023/03/20 01:35:26;;;;;;;3.28;2.33;;;;;;;;;;5074615;28;20056;-60
2023/03/20 01:37:53;;;;;;;3.20;2.30;;;;;;;;;;5074231;28;20028;-59
2023/03/20 01:40:26;;;;;;;3.78;2.25;;;;;;;;;;5074557;28;20028;-60
2023/03/20 01:42:52;;;;;;;3.42;2.72;;;;;;;;;;5075061;28;20068;-59
2023/03/20 01:45:20;;;;;;;3.60;1.80;;;;;;;;;;5074539;28;20028;-59
2023/03/20 01:47:47;;;;;;;2.70;1.83;;;;;;;;;;5073791;28;20021;-59
2023/03/20 01:50:30;;;;;;;2.45;1.95;;;;;;;;;;5074140;28;20063;-59
2023/03/20 01:53:02;;;;;;;3.20;2.10;;;;;;;;;;5074290;28;20029;-59
2023/03/20 01:55:28;;;;;;;3.63;2.15;;;;;;;;;;5074897;28;20462;-59
2023/03/20 01:57:56;;;;;;;2.97;2.08;;;;;;;;;;5074648;28;20108;-59
2023/03/20 02:00:22;;;;;;;3.08;2.22;;;;;;;;;;5074004;28;20033;-59
2023/03/20 02:02:49;;;;;;;3.60;2.00;;;;;;;;;;5073487;28;20107;-59
2023/03/20 02:05:16;;;;;;;2.97;1.98;;;;;;;;;;5074620;28;20032;-59
2023/03/20 02:07:45;;;;;;;2.58;1.92;;;;;;;;;;5073687;28;20063;-59
2023/03/20 02:10:12;;;;;;;2.53;1.92;;;;;;;;;;5074248;28;20051;-59
2023/03/20 02:12:38;;;;;;;3.70;1.77;;;;;;;;;;5073848;28;20116;-59
2023/03/20 02:15:05;;;;;;;2.97;1.70;;;;;;;;;;5073529;28;20444;-59
2023/03/20 02:17:32;;;;;;;1.73;1.08;;;;;;;;;;5073819;28;20032;-59
2023/03/20 02:19:58;;;;;;;2.45;1.77;;;;;;;;;;5073625;28;20425;-59
2023/03/20 02:22:40;;;;;;;3.70;1.92;;;;;;;;;;5073740;28;20021;-59
2023/03/20 02:25:14;;;;;;;2.78;1.77;;;;;;;;;;5074150;28;20093;-60
2023/03/20 02:27:59;;;;;;;2.03;1.13;;;;;;;;;;5074320;28;20028;-60
2023/03/20 02:30:43;;;;;;;2.97;1.60;;;;;;;;;;5074104;28;20021;-60
2023/03/20 02:33:21;;;;;;;1.75;1.27;;;;;;;;;;5073649;28;20052;-60
2023/03/20 02:36:02;;;;;;;1.42;0.93;;;;;;;;;;5073955;28;20099;-59
2023/03/20 02:38:37;;;;;;;1.30;0.70;;;;;;;;;;5073625;28;20039;-60
2023/03/20 02:41:21;;;;;;;1.90;1.05;;;;;;;;;;5073358;28;20440;-59
2023/03/20 02:43:52;;;;;;;0.80;0.52;;;;;;;;;;5073709;28;20052;-60
2023/03/20 02:46:25;;;;;;;1.85;0.68;;;;;;;;;;5073910;28;20029;-60
2023/03/20 02:49:17;;;;;;;1.95;0.90;;;;;;;;;;5073912;28;20033;-60
2023/03/20 02:52:02;;;;;;;1.27;0.82;;;;;;;;;;5072229;28;20033;-60
2023/03/20 02:54:32;;;;;;;0.90;0.50;;;;;;;;;;5073999;28;20416;-59
2023/03/20 02:56:58;;;;;;;;;;;;;;;;;;5074177;28;20032;-60
2023/03/20 02:59:33;;;;;;;0.95;0.50;;;;;;;;;;5073380;28;20056;-60
2023/03/20 03:02:12;;;;;;;0.98;0.50;;;;;;;;;;5073687;28;20029;-59
2023/03/20 03:04:41;;;;;;;1.27;0.20;;;;;;;;;;5073609;28;20029;-60
2023/03/20 03:07:07;;;;;;;1.15;0.55;;;;;;;;;;5073935;28;20032;-59
2023/03/20 03:09:36;;;;;;;0.82;0.32;;;;;;;;;;5073375;28;20033;-59
2023/03/20 03:12:07;;;;;;;1.55;0.60;;;;;;;;;;5073561;28;20040;-59
2023/03/20 03:14:37;;;;;;;0.65;0.28;;;;;;;;;;5074876;28;20040;-60
2023/03/20 03:17:04;;;;;;;0.97;0.40;;;;;;;;;;5077008;28;20025;-60
2023/03/20 03:19:31;;;;;;;1.35;0.60;;;;;;;;;;5076972;28;20060;-59
2023/03/20 03:21:57;;;;;;;0.88;0.40;;;;;;;;;;5076681;28;20522;-59
2023/03/20 03:24:28;;;;;;;0.93;0.43;;;;;;;;;;5077096;28;20116;-60
2023/03/20 03:26:54;;;;;;;;;;;;;;;;;;5077563;28;20432;-60
2023/03/20 03:29:21;;;;;;;1.30;0.70;;;;;;;;;;5076723;28;19905;-59
2023/03/20 03:31:48;;;;;;;0.75;0.45;;;;;;;;;;5076697;28;20374;-60
2023/03/20 03:34:16;;;;;;;4.82;0.30;;;;;;;;;;5077236;28;20025;-60
2023/03/20 03:37:01;;;;;;;0.65;0.47;;;;;;;;;;5076699;28;20503;-60
2023/03/20 03:39:39;;;;;;;1.10;0.60;;;;;;;;;;5076870;28;20040;-60
2023/03/20 03:42:11;;;;;;;0.77;0.40;;;;;;;;;;5076594;28;20453;-60
2023/03/20 03:44:56;;;;;;;1.13;0.60;;;;;;;;;;5077055;28;20450;-59
2023/03/20 03:47:28;;;;;;;0.95;0.55;;;;;;;;;;5076835;28;20040;-60
2023/03/20 03:49:58;;;;;;;1.20;0.70;;;;;;;;;;5076202;28;20095;-60
2023/03/20 03:52:24;;;;;;;1.98;0.40;;;;;;;;;;5076404;28;20070;-60
2023/03/20 03:55:16;;;;;;;0.80;0.30;;;;;;;;;;5076644;28;20107;-60
2023/03/20 03:57:42;;;;;;;0.90;0.45;;;;;;;;;;5074432;28;20081;-59
2023/03/20 04:00:11;;;;;;;0.60;0.30;;;;;;;;;;5076584;28;20020;-60
2023/03/20 04:02:37;;;;;;;1.30;0.60;;;;;;;;;;5075245;28;20035;-60
2023/03/20 04:05:05;;;;;;;1.73;0.57;;;;;;;;;;5076194;28;20038;-60
2023/03/20 04:07:31;;;;;;;1.20;0.68;;;;;;;;;;5076324;28;20090;-60
2023/03/20 04:09:57;;;;;;;1.17;0.50;;;;;;;;;;5076636;28;20032;-60
2023/03/20 04:12:39;;;;;;;0.65;0.35;;;;;;;;;;5076120;28;20027;-60
2023/03/20 04:15:05;;;;;;;0.85;0.43;;;;;;;;;;5076479;28;20106;-60
2023/03/20 04:17:32;;;;;;;0.93;0.43;;;;;;;;;;5075999;28;20547;-59
2023/03/20 04:19:58;;;;;;;0.47;0.25;;;;;;;;;;5075952;28;20025;-60
2023/03/20 04:22:24;;;;;;;0.95;0.40;;;;;;;;;;5075911;28;20028;-60
2023/03/20 04:24:51;;;;;;;0.68;0.38;;;;;;;;;;5075584;28;20060;-59
2023/03/20 04:27:17;;;;;;;1.35;0.52;;;;;;;;;;5075729;28;20044;-60
2023/03/20 04:29:43;;;;;;;1.00;0.70;;;;;;;;;;5076085;28;20366;-60
2023/03/20 04:32:10;;;;;;;0.93;0.35;;;;;;;;;;5075636;28;20036;-60
2023/03/20 04:34:36;;;;;;;2.95;1.08;;;;;;;;;;5075603;28;20347;-60
2023/03/20 04:37:02;;;;;;;0.98;0.50;;;;;;;;;;5075888;28;20035;-60
2023/03/20 04:39:27;;;;;;;0.65;0.40;;;;;;;;;;5075638;28;20133;-59
2023/03/20 04:41:53;;;;;;;0.77;0.40;;;;;;;;;;5075807;28;20059;-62
2023/03/20 04:44:19;;;;;;;1.02;0.47;;;;;;;;;;5075534;28;20069;-60
2023/03/20 04:46:45;;;;;;;0.70;0.30;;;;;;;;;;5075535;28;20028;-60
2023/03/20 04:49:11;;;;;;;0.40;0.20;;;;;;;;;;5075968;28;20051;-60
2023/03/20 04:51:37;;;;;;;0.95;0.50;;;;;;;;;;5075349;28;20096;-60
2023/03/20 04:54:03;;;;;;;0.88;0.50;;;;;;;;;;5075327;28;20077;-59
2023/03/20 04:56:29;;;;;;;0.70;0.40;;;;;;;;;;5075452;28;20035;-60
2023/03/20 04:58:55;;;;;;;1.30;0.60;;;;;;;;;;5075478;28;20028;-60
2023/03/20 05:01:22;;;;;;;1.20;0.65;;;;;;;;;;5075274;28;20028;-60
2023/03/20 05:03:48;;;;;;;1.15;0.60;;;;;;;;;;5074758;28;20038;-60
2023/03/20 05:06:14;;;;;;;1.90;0.60;;;;;;;;;;5075635;28;20034;-60
2023/03/20 05:08:40;;;;;;;0.88;0.50;;;;;;;;;;5074911;28;20032;-59
2023/03/20 05:11:07;;;;;;;0.73;0.35;;;;;;;;;;5075735;28;20112;-60
2023/03/20 05:13:33;;;;;;;0.68;0.40;;;;;;;;;;5074843;28;20028;-60
2023/03/20 05:16:00;;;;;;;1.13;0.52;;;;;;;;;;5075147;28;20053;-60
2023/03/20 05:18:25;;;;;;;1.00;0.47;;;;;;;;;;5074797;28;20035;-60
2023/03/20 05:20:51;;;;;;;0.85;0.35;;;;;;;;;;5075349;28;20028;-60
2023/03/20 05:23:17;;;;;;;2.78;1.35;;;;;;;;;;5074666;28;20029;-59
2023/03/20 05:25:44;;;;;;;1.65;1.10;;;;;;;;;;5074641;28;20032;-60
2023/03/20 05:28:10;;;;;;;1.10;0.55;;;;;;;;;;5074529;28;20532;-60
2023/03/20 05:30:36;;;;;;;1.55;0.80;;;;;;;;;;5074674;28;20104;-63
2023/03/20 05:33:02;;;;;;;1.05;0.55;;;;;;;;;;5074974;28;20079;-60
2023/03/20 05:35:28;;;;;;;0.98;0.50;;;;;;;;;;5074525;28;20036;-60
2023/03/20 05:37:54;;;;;;;1.23;0.60;;;;;;;;;;5073829;28;20028;-60
2023/03/20 05:40:23;;;;;;;1.20;0.60;;;;;;;;;;5074597;28;20032;-60
2023/03/20 05:42:49;;;;;;;0.75;0.50;;;;;;;;;;5074867;28;20056;-60
2023/03/20 05:45:15;;;;;;;1.23;0.65;;;;;;;;;;5074369;28;20071;-59
2023/03/20 05:47:41;;;;;;;1.23;0.68;;;;;;;;;;5074220;28;20028;-60
2023/03/20 05:50:07;;;;;;;1.38;0.68;;;;;;;;;;5074522;28;20025;-60
2023/03/20 05:52:33;;;;;;;0.80;0.52;;;;;;;;;;5074238;28;20374;-60
2023/03/20 05:54:59;;;;;;;1.05;0.50;;;;;;;;;;5074727;28;20032;-60
2023/03/20 05:57:25;;;;;;;1.88;0.95;;;;;;;;;;5073921;28;20029;-60
2023/03/20 05:59:51;;;;;;;0.82;0.38;;;;;;;;;;5074018;28;20028;-59
2023/03/20 06:02:17;;;;;;;1.67;0.80;;;;;;;;;;5074036;28;20036;-59
2023/03/20 06:04:43;;;;;;;1.70;0.98;;;;;;;;;;5074054;28;20028;-58
2023/03/20 06:07:09;;;;;;;1.23;0.55;;;;;;;;;;5074280;28;20107;-59
2023/03/20 06:09:35;;;;;;;1.40;0.57;;;;;;;;;;5074226;28;20025;-59
2023/03/20 06:12:01;;;;;;;1.45;0.77;;;;;;;;;;5073718;28;20039;-58
2023/03/20 06:14:27;;;;;;;1.08;0.57;;;;;;;;;;5072310;28;20379;-59
2023/03/20 06:16:53;;;;;;;0.98;0.68;;;;;;;;;;5074325;28;20036;-58
2023/03/20 06:19:20;;;;;;;1.85;1.08;;;;;;;;;;5073469;28;20407;-58
2023/03/20 06:21:46;;;;;;;0.52;0.32;;;;;;;;;;5073624;28;20060;-58
2023/03/20 06:24:12;;;;;;;2.58;1.20;;;;;;;;;;5074457;28;20032;-58
2023/03/20 06:26:38;;;;;;;2.15;0.90;;;;;;;;;;5074299;28;20473;-59
2023/03/20 06:29:05;;;;;;;1.55;0.80;;;;;;;;;;5073988;28;20355;-58
2023/03/20 06:31:31;;;;;;;1.70;0.90;;;;;;;;;;5073583;28;20423;-59
2023/03/20 06:33:57;;;;;;;3.75;0.90;;;;;;;;;;5074067;28;20071;-59
2023/03/20 06:36:23;;;;;;;1.55;0.95;;;;;;;;;;5073916;28;20366;-58
2023/03/20 06:38:49;;;;;;;1.48;0.65;;;;;;;;;;5073912;28;20032;-59
2023/03/20 06:41:15;;;;;;;0.88;0.68;;;;;;;;;;5073617;28;20028;-58
2023/03/20 06:43:41;;;;;;;2.15;0.90;;;;;;;;;;5072988;28;20436;-58
2023/03/20 06:46:08;;;;;;;1.77;1.02;;;;;;;;;;5073510;28;20170;-58
2023/03/20 06:48:34;;;;;;;1.92;0.98;;;;;;;;;;5075201;28;20036;-59
2023/03/20 06:51:00;;;;;;;1.55;0.95;;;;;;;;;;5077663;28;20032;-57
2023/03/20 06:53:26;;;;;;;2.50;1.30;;;;;;;;;;5077831;28;20113;-58
2023/03/20 06:55:53;;;;;;;2.38;0.80;;;;;;;;;;5078055;28;20045;-58
2023/03/20 06:58:19;;;;;;;2.13;1.45;;;;;;;;;;5077308;28;20107;-59
2023/03/20 07:00:45;;;;;;;1.88;0.73;;;;;;;;;;5078122;28;20354;-59
2023/03/20 07:03:11;;;;;;;1.85;0.90;;;;;;;;;;5077825;28;20063;-58
2023/03/20 07:05:39;;;;;;;2.53;1.23;;;;;;;;;;5077797;28;20036;-58
2023/03/20 07:08:06;;;;;;;2.35;0.82;;;;;;;;;;5077065;28;20033;-58
2023/03/20 07:10:32;;;;;;;1.90;1.20;;;;;;;;;;5077426;28;20032;-59
2023/03/20 07:12:59;;;;;;;2.78;1.20;;;;;;;;;;5077882;28;20033;-58
2023/03/20 07:15:25;;;;;;;1.77;0.88;;;;;;;;;;5077068;28;20458;-58
2023/03/20 07:17:52;;;;;;;2.28;1.20;;;;;;;;;;5076871;28;20041;-58
2023/03/20 07:20:18;;;;;;;7.10;1.02;;;;;;;;;;5077249;28;20029;-58
2023/03/20 07:22:44;;;;;;;2.10;1.17;;;;;;;;;;5076919;28;20052;-58
2023/03/20 07:25:10;;;;;;;2.13;1.50;;;;;;;;;;5076899;28;20050;-58
2023/03/20 07:27:37;;;;;;;1.75;0.82;;;;;;;;;;5077010;28;20073;-58
2023/03/20 07:30:05;;;;;;;2.15;0.80;;;;;;;;;;5076758;28;20025;-58
2023/03/20 07:32:30;;;;;;;1.50;0.90;;;;;;;;;;5077301;28;20103;-58
2023/03/20 07:34:56;;;;;;;1.95;0.98;;;;;;;;;;5076849;28;20495;-58
2023/03/20 07:37:23;;;;;;;2.13;1.27;;;;;;;;;;5076632;28;20351;-58
2023/03/20 07:39:48;;;;;;;1.67;0.90;;;;;;;;;;5076882;28;20032;-58
2023/03/20 07:42:15;;;;;;;1.60;0.88;;;;;;;;;;5076672;28;20082;-58
2023/03/20 07:44:41;;;;;;;2.45;1.10;;;;;;;;;;5076541;28;20123;-58
2023/03/20 07:47:07;;;;;;;2.00;1.17;;;;;;;;;;5076914;28;20082;-59
2023/03/20 07:49:33;;;;;;;2.03;1.20;;;;;;;;;;5076793;28;20024;-58
2023/03/20 07:51:59;;;;;;;2.45;1.63;;;;;;;;;;5076393;28;20035;-58
2023/03/20 07:54:25;;;;;;;2.53;1.25;;;;;;;;;;5076119;28;20025;-58
2023/03/20 07:56:52;;;;;;;5.07;1.83;;;;;;;;;;5076547;28;20033;-58
2023/03/20 07:59:18;;;;;;;1.85;1.10;;;;;;;;;;5075784;28;20063;-59
2023/03/20 08:01:44;;;;;;;2.80;1.48;;;;;;;;;;5076221;28;20389;-58
2023/03/20 08:04:10;;;;;;;1.38;0.80;;;;;;;;;;5076333;28;20162;-58
2023/03/20 08:06:38;;;;;;;1.35;0.75;;;;;;;;;;5077123;28;20033;-58
2023/03/20 08:09:04;;;;;;;2.17;1.25;;;;;;;;;;5076181;28;20028;-58
2023/03/20 08:11:30;;;;;;;1.48;0.88;;;;;;;;;;5076043;28;20036;-58
2023/03/20 08:13:56;;;;;;;1.92;1.10;;;;;;;;;;5076087;28;20025;-60
2023/03/20 08:16:22;;;;;;;2.13;0.95;;;;;;;;;;5075471;28;20509;-58
2023/03/20 08:18:49;;;;;;;1.85;1.05;;;;;;;;;;5076449;28;20474;-58
2023/03/20 08:21:16;;;;;;;2.30;1.10;;;;;;;;;;5075879;28;20103;-58
2023/03/20 08:23:42;;;;;;;1.92;0.95;;;;;;;;;;5076351;28;20047;-58
2023/03/20 08:26:08;;;;;;;1.67;0.80;;;;;;;;;;5075924;28;20028;-58
2023/03/20 08:28:34;;;;;;;1.13;0.75;;;;;;;;;;5075750;28;20127;-58
2023/03/20 08:31:00;;;;;;;3.08;1.00;;;;;;;;;;5075849;28;20032;-58
2023/03/20 08:33:26;;;;;;;2.65;1.50;;;;;;;;;;5075574;28;20032;-58
2023/03/20 08:35:58;;;;;;;3.70;1.13;;;;;;;;;;5075414;28;20033;-59
2023/03/20 08:38:24;;;;;;;2.00;1.15;;;;;;;;;;5075564;28;20021;-58
2023/03/20 08:40:50;;;;;;;1.95;0.85;;;;;;;;;;5075524;28;20024;-57
2023/03/20 08:43:17;;;;;;;2.13;1.02;;;;;;;;;;5074223;28;20025;-58
2023/03/20 08:45:43;;;;;;;1.20;0.70;;;;;;;;;;5076056;28;20075;-58
2023/03/20 08:48:10;;;;;;;1.42;0.82;;;;;;;;;;5075346;28;20025;-58
2023/03/20 08:50:36;;;;;;;1.88;1.05;;;;;;;;;;5075277;28;20024;-58
2023/03/20 08:53:02;;;;;;;1.20;0.65;;;;;;;;;;5075152;28;20035;-58
2023/03/20 08:55:28;;;;;;;6.03;1.30;;;;;;;;;;5075471;28;20025;-58
2023/03/20 08:57:56;;;;;;;2.03;1.33;;;;;;;;;;5075190;28;20033;-58
2023/03/20 09:00:22;;;;;;;2.80;1.05;;;;;;;;;;5075097;28;20033;-58
2023/03/20 09:02:49;;;;;;;2.03;1.10;;;;;;;;;;5075011;28;20078;-58
2023/03/20 09:05:15;;;;;;;1.75;0.98;;;;;;;;;;5075653;28;20063;-58
2023/03/20 09:07:41;;;;;;;1.08;0.60;;;;;;;;;;5075006;28;20036;-58
2023/03/20 09:10:08;;;;;;;1.85;0.82;;;;;;;;;;5074889;28;20020;-58
2023/03/20 09:12:34;;;;;;;1.23;0.70;;;;;;;;;;5074922;28;20028;-58
2023/03/20 09:15:00;;;;;;;1.38;0.90;;;;;;;;;;5075058;28;20052;-58
2023/03/20 09:17:26;;;;;;;1.33;0.80;;;;;;;;;;5075085;28;20082;-58
2023/03/20 09:19:52;;;;;;;1.55;0.93;;;;;;;;;;5074753;28;20472;-58
2023/03/20 09:22:18;;;;;;;2.25;1.10;;;;;;;;;;5074713;28;20113;-58
2023/03/20 09:24:45;;;;;;;1.08;0.70;;;;;;;;;;5074691;28;20367;-58
2023/03/20 09:27:12;;;;;;;3.05;0.80;;;;;;;;;;5074294;28;20052;-58
2023/03/20 09:29:39;;;;;;;4.88;1.05;;;;;;;;;;5075311;28;20028;-58
2023/03/20 09:32:05;;;;;;;1.23;0.50;;;;;;;;;;5074791;28;20021;-58
2023/03/20 09:34:31;;;;;;;3.85;1.13;;;;;;;;;;5074970;28;20331;-58
2023/03/20 09:36:57;;;;;;;2.53;1.40;;;;;;;;;;5075038;28;20060;-58
2023/03/20 09:39:23;;;;;;;1.88;1.10;;;;;;;;;;5074382;28;20024;-58
2023/03/20 09:41:49;;;;;;;1.50;1.02;;;;;;;;;;5074373;28;20025;-58
2023/03/20 09:44:34;;;;;;;2.72;1.30;;;;;;;;;;5074939;28;20438;-58
2023/03/20 09:47:14;;;;;;;1.73;0.93;;;;;;;;;;5074684;28;20024;-58
2023/03/20 09:50:00;;;;;;;5.38;1.05;;;;;;;;;;5074366;28;20024;-58
2023/03/20 09:52:26;;;;;;;5.18;1.40;;;;;;;;;;5053053;28;20094;-57
2023/03/20 09:54:53;;;;;;;1.60;0.95;;;;;;;;;;5074148;28;20020;-58
2023/03/20 09:57:46;;;;;;;1.42;0.70;;;;;;;;;;5074086;28;20033;-58
2023/03/20 10:00:15;;;;;;;1.73;1.13;;;;;;;;;;5073193;28;20119;-58
2023/03/20 10:03:00;;;;;;;1.95;1.15;;;;;;;;;;5074004;28;20032;-58
2023/03/20 10:05:26;;;;;;;1.55;0.90;;;;;;;;;;5074543;28;20363;-58
2023/03/20 10:07:55;;;;;;;2.05;1.00;;;;;;;;;;5074313;28;20047;-57
2023/03/20 10:10:26;;;;;;;3.00;1.52;;;;;;;;;;5074360;28;20029;-58
2023/03/20 10:12:52;;;;;;;2.13;1.20;;;;;;;;;;5074233;28;20032;-58
2023/03/20 10:15:24;;;;;;;1.42;0.85;;;;;;;;;;5073811;28;20052;-58
2023/03/20 10:17:52;;;;;;;2.33;1.27;;;;;;;;;;5074222;28;20051;-58
2023/03/20 10:20:25;;;;;;;2.00;1.25;;;;;;;;;;5074585;28;20033;-58
2023/03/20 10:22:54;;;;;;;1.60;0.98;;;;;;;;;;5073330;28;20028;-58
2023/03/20 10:25:31;;;;;;;1.90;1.13;;;;;;;;;;5073917;28;20035;-58
2023/03/20 10:27:57;;;;;;;1.88;0.93;;;;;;;;;;5074337;28;20315;-58
2023/03/20 10:30:38;;;;;;;2.15;1.17;;;;;;;;;;5073917;28;20096;-58
2023/03/20 10:33:07;;;;;;;2.58;1.38;;;;;;;;;;5073735;28;20029;-58
2023/03/20 10:35:38;;;;;;;2.25;0.85;;;;;;;;;;5073933;28;20036;-58
2023/03/20 10:38:03;;;;;;;;;;;;;;;;;;5074446;28;20077;-58
2023/03/20 10:40:31;;;;;;;1.42;0.85;;;;;;;;;;5073938;28;19934;-58
2023/03/20 10:43:00;;;;;;;2.92;0.85;;;;;;;;;;5073616;28;20420;-58
2023/03/20 10:45:33;;;;;;;2.58;1.00;;;;;;;;;;5074098;28;20027;-58
2023/03/20 10:48:01;;;;;;;1.38;0.77;;;;;;;;;;5073953;28;20021;-57
2023/03/20 10:50:30;;;;;;;2.40;1.30;;;;;;;;;;5073427;28;20451;-58
2023/03/20 10:52:57;;;;;;;0.82;0.55;;;;;;;;;;5074053;28;20094;-58
2023/03/20 10:55:28;;;;;;;1.38;0.70;;;;;;;;;;5073475;28;20021;-58
2023/03/20 10:58:02;;;;;;;2.15;1.23;;;;;;;;;;5073694;28;20481;-58
2023/03/20 11:00:28;;;;;;;1.60;0.82;;;;;;;;;;5074075;28;20056;-58
2023/03/20 11:02:54;;;;;;;2.13;1.30;;;;;;;;;;5073309;28;20075;-58
2023/03/20 11:05:23;;;;;;;1.20;0.73;;;;;;;;;;5073371;28;20193;-58
2023/03/20 11:08:00;;;;;;;1.65;1.02;;;;;;;;;;5073340;28;20029;-57
2023/03/20 11:10:27;;;;;;;2.08;1.15;;;;;;;;;;5073337;28;20036;-58
2023/03/20 11:12:53;;;;;;;2.97;1.45;;;;;;;;;;5073347;28;20024;-58
2023/03/20 11:15:21;;;;;;;1.83;0.88;;;;;;;;;;5073876;28;20431;-58
2023/03/20 11:17:55;;;;;;;1.58;0.90;;;;;;;;;;5073277;28;20029;-58
2023/03/20 11:20:21;;;;;;;2.78;1.10;;;;;;;;;;5073243;28;20028;-59
2023/03/20 11:22:48;;;;;;;1.50;0.82;;;;;;;;;;5073682;28;20031;-58
2023/03/20 11:25:29;;;;;;;1.75;0.95;;;;;;;;;;5073573;28;20056;-58
2023/03/20 11:27:55;;;;;;;2.47;1.10;;;;;;;;;;5073744;28;20032;-58
2023/03/20 11:30:22;;;;;;;2.35;1.40;;;;;;;;;;5073066;28;20108;-58
2023/03/20 11:32:54;;;;;;;1.90;1.10;;;;;;;;;;5073114;28;20032;-58
2023/03/20 11:35:21;;;;;;;2.35;1.10;;;;;;;;;;5074821;28;20043;-58
2023/03/20 11:37:49;;;;;;;2.58;1.05;;;;;;;;;;5076351;28;20504;-58
2023/03/20 11:40:16;;;;;;;5.28;1.25;;;;;;;;;;5076642;28;20029;-58
2023/03/20 11:42:53;;;;;;;2.88;1.33;;;;;;;;;;5076662;28;20024;-58
2023/03/20 11:45:19;;;;;;;2.42;1.10;;;;;;;;;;5077134;28;20021;-58
2023/03/20 11:47:49;;;;;;;3.63;1.88;;;;;;;;;;5077003;28;20507;-57
2023/03/20 11:50:26;;;;;;;2.70;1.90;;;;;;;;;;5076550;28;20126;-58
2023/03/20 11:52:52;;;;;;;5.13;3.47;;;;;;;;;;5076939;28;20052;-58
2023/03/20 11:55:32;;;;;;;8.20;2.55;;;;;;;;;;5076310;28;20397;-58
2023/03/20 11:57:59;;;;;;;4.15;2.92;;;;;;;;;;5076279;28;20074;-58
2023/03/20 12:00:28;;;;;;;4.07;2.67;;;;;;;;;;5076330;28;20128;-58
2023/03/20 12:02:54;;;;;;;4.10;2.90;;;;;;;;;;5076200;28;20020;-58
2023/03/20 12:05:38;;;;;;;4.45;3.00;;;;;;;;;;5077088;28;20021;-58
2023/03/20 12:08:22;;;;;;;5.45;3.20;;;;;;;;;;5076458;28;20032;-58
2023/03/20 12:10:55;;;;;;;4.65;2.88;;;;;;;;;;5076168;28;20028;-57
2023/03/20 12:13:41;;;;;;;3.25;2.92;;;;;;;;;;5076058;28;20032;-59
2023/03/20 12:16:15;;;;;;;6.45;3.40;;;;;;;;;;5075994;28;20044;-59
2023/03/20 12:18:52;;;;;;;3.97;2.97;;;;;;;;;;5075961;28;20039;-59
2023/03/20 12:21:23;;;;;;;3.83;2.88;;;;;;;;;;5076195;28;20029;-59
2023/03/20 12:24:05;;;;;;;3.95;2.75;;;;;;;;;;5075910;28;20417;-59
2023/03/20 12:26:50;;;;;;;7.93;3.40;;;;;;;;;;5075883;28;20056;-59
2023/03/20 12:29:20;;;;;;;3.47;2.63;;;;;;;;;;5075778;28;20062;-58
2023/03/20 12:31:47;;;;;;;4.35;2.45;;;;;;;;;;5075433;28;20485;-59
2023/03/20 12:34:24;;;;;;;3.47;2.33;;;;;;;;;;5075744;28;20028;-58
2023/03/20 12:36:51;;;;;;;4.35;2.50;;;;;;;;;;5075628;28;20051;-59
2023/03/20 12:39:27;;;;;;;3.70;2.40;;;;;;;;;;5075493;28;20067;-59
2023/03/20 12:42:13;;;;;;;4.57;3.00;;;;;;;;;;5075581;28;20034;-59
2023/03/20 12:44:44;;;;;;;3.80;2.35;;;;;;;;;;5076022;28;20374;-59
2023/03/20 12:47:13;;;;;;;3.22;2.70;;;;;;;;;;5075533;28;20031;-59
2023/03/20 12:49:39;;;;;;;3.78;3.03;;;;;;;;;;5076014;28;20462;-58
2023/03/20 12:52:05;;;;;;;4.50;3.80;;;;;;;;;;5075440;28;20103;-59
2023/03/20 12:54:37;;;;;;;4.80;2.40;;;;;;;;;;5075321;28;20449;-59
2023/03/20 12:57:03;;;;;;;6.63;2.78;;;;;;;;;;5075536;28;20417;-59
2023/03/20 12:59:29;;;;;;;4.55;2.25;;;;;;;;;;5075169;28;20029;-59
2023/03/20 13:01:57;;;;;;;4.65;2.50;;;;;;;;;;5075172;28;20089;-58
2023/03/20 13:04:29;;;;;;;5.00;3.03;;;;;;;;;;5075406;28;20024;-59
2023/03/20 13:06:58;;;;;;;3.80;1.98;;;;;;;;;;5075217;28;20057;-59
2023/03/20 13:09:25;;;;;;;4.15;2.15;;;;;;;;;;5074823;28;20032;-59
2023/03/20 13:11:59;;;;;;;8.00;2.05;;;;;;;;;;5074675;28;20028;-59
2023/03/20 13:14:40;;;;;;;3.95;2.00;;;;;;;;;;5074775;28;20048;-60
2023/03/20 13:17:17;;;;;;;3.40;2.10;;;;;;;;;;5074403;28;20035;-59
2023/03/20 13:19:59;;;;;;;3.10;2.40;;;;;;;;;;5074378;28;20096;-59
2023/03/20 13:22:31;;;;;;;4.80;1.95;;;;;;;;;;5075046;28;20060;-59
2023/03/20 13:25:24;;;;;;;4.43;2.67;;;;;;;;;;5074833;28;20024;-59
2023/03/20 13:27:56;;;;;;;5.80;2.83;;;;;;;;;;5075141;28;20024;-59
2023/03/20 13:30:25;;;;;;;3.45;2.17;;;;;;;;;;5074436;28;20024;-60
2023/03/20 13:33:05;;;;;;;5.15;2.95;;;;;;;;;;5074546;28;20458;-59
2023/03/20 13:35:49;;;;;;;5.18;2.42;;;;;;;;;;5074885;28;20032;-59
2023/03/20 13:38:18;;;;;;;4.00;2.63;;;;;;;;;;5074168;28;20046;-60
2023/03/20 13:40:45;;;;;;;3.97;2.63;;;;;;;;;;5074225;28;20036;-59
2023/03/20 13:43:11;;;;;;;5.97;3.03;;;;;;;;;;5074215;28;20036;-60
2023/03/20 13:45:39;;;;;;;3.60;2.50;;;;;;;;;;5074320;28;20020;-59
2023/03/20 13:48:23;;;;;;;3.97;2.70;;;;;;;;;;5074731;28;20080;-60
2023/03/20 13:51:08;;;;;;;2.95;1.70;;;;;;;;;;5074167;28;20351;-59
2023/03/20 13:53:53;;;;;;;3.55;2.33;;;;;;;;;;5074750;28;20468;-59
2023/03/20 13:56:26;;;;;;;3.50;2.33;;;;;;;;;;5073388;28;20029;-59
2023/03/20 13:58:57;;;;;;;2.88;2.10;;;;;;;;;;5074328;28;20474;-60
2023/03/20 14:01:29;;;;;;;6.32;1.50;;;;;;;;;;5074625;28;20418;-59
2023/03/20 14:03:56;;;;;;;3.65;1.73;;;;;;;;;;5074639;28;20032;-59
2023/03/20 14:06:30;;;;;;;2.55;1.50;;;;;;;;;;5074596;28;20375;-59
2023/03/20 14:08:57;;;;;;;4.25;2.72;;;;;;;;;;5074124;28;20021;-58
2023/03/20 14:11:23;;;;;;;5.20;3.08;;;;;;;;;;5074011;28;20025;-59
2023/03/20 14:13:56;;;;;;;4.25;2.90;;;;;;;;;;5073803;28;20497;-59
2023/03/20 14:16:22;;;;;;;4.15;3.00;;;;;;;;;;5073417;28;20163;-58
2023/03/20 14:18:58;;;;;;;4.10;2.63;;;;;;;;;;5074075;28;20132;-59
2023/03/20 14:21:24;;;;;;;3.35;2.55;;;;;;;;;;5074163;28;20048;-59
2023/03/20 14:23:56;;;;;;;3.42;2.38;;;;;;;;;;5073741;28;20032;-59
2023/03/20 14:26:25;;;;;;;3.92;2.83;;;;;;;;;;5074095;28;20107;-59
2023/03/20 14:28:54;;;;;;;6.85;2.28;;;;;;;;;;5073699;28;20447;-59
2023/03/20 14:31:37;;;;;;;5.88;2.42;;;;;;;;;;5073615;28;20058;-60
2023/03/20 14:34:05;;;;;;;3.53;2.05;;;;;;;;;;5073659;28;20036;-59
2023/03/20 14:36:41;;;;;;;5.28;1.73;;;;;;;;;;5073995;28;20024;-59
2023/03/20 14:39:07;;;;;;;3.83;2.38;;;;;;;;;;5073649;28;20116;-59
2023/03/20 14:41:37;;;;;;;2.35;1.50;;;;;;;;;;5074236;28;20053;-59
2023/03/20 14:44:14;;;;;;;7.50;2.13;;;;;;;;;;5073933;28;20059;-59
2023/03/20 14:47:00;;;;;;;4.32;2.28;;;;;;;;;;5072919;28;20036;-59
2023/03/20 14:49:32;;;;;;;4.15;2.17;;;;;;;;;;5074063;28;20041;-60
2023/03/20 14:52:09;;;;;;;3.17;2.13;;;;;;;;;;5073846;28;20020;-57
2023/03/20 14:54:35;;;;;;;3.00;2.10;;;;;;;;;;5073967;28;20052;-59
2023/03/20 14:57:18;;;;;;;2.50;1.52;;;;;;;;;;5073788;28;20060;-60